Time;durP1;ratioP1;P1;durP2;ratioP2;P2;SDS_P1;SDS_P2;PMS_P1;PMS_P2;Temp;Humidity;BMP_temperature;BMP_pressure;BME280_temperature;BME280_humidity;BME280_pressure;Samples;Min_cycle;Max_cycle;Signal;HPM_P1;HPM_P2
2023/10/09 00:02:14;;;;;;;11.90;5.17;;;16.30;1.00;;;;;;6308674;22;20468;-43
2023/10/09 00:04:45;;;;;;;9.33;5.23;;;16.30;1.00;;;;;;6310429;22;20394;-43
2023/10/09 00:07:11;;;;;;;10.63;5.57;;;16.30;1.00;;;;;;6310370;22;20647;-43
2023/10/09 00:09:46;;;;;;;11.90;6.53;;;16.20;1.00;;;;;;6310565;22;20378;-43
2023/10/09 00:12:16;;;;;;;13.87;5.63;;;16.20;1.00;;;;;;6311043;22;20979;-44
2023/10/09 00:14:47;;;;;;;10.53;5.10;;;16.20;1.00;;;;;;6309861;22;20422;-43
2023/10/09 00:19:43;;;;;;;13.70;5.50;;;16.20;1.00;;;;;;6310546;22;20995;-46
2023/10/09 00:22:25;;;;;;;12.27;5.97;;;16.10;1.00;;;;;;6309561;22;20409;-44
2023/10/09 00:25:10;;;;;;;12.37;5.30;;;16.10;1.00;;;;;;6310534;22;20645;-43
2023/10/09 00:27:42;;;;;;;13.20;5.70;;;16.10;1.00;;;;;;6309765;22;20386;-44
2023/10/09 00:30:15;;;;;;;12.50;5.17;;;16.10;1.00;;;;;;6310378;22;20386;-43
2023/10/09 00:32:53;;;;;;;10.50;5.20;;;16.00;1.00;;;;;;6309540;22;20389;-44
2023/10/09 00:38:15;;;;;;;18.17;6.00;;;16.10;1.00;;;;;;6309121;22;20864;-43
2023/10/09 00:40:46;;;;;;;17.27;6.53;;;16.20;1.00;;;;;;6309564;22;20446;-43
2023/10/09 00:43:13;;;;;;;19.50;6.57;;;16.20;1.00;;;;;;6309077;22;20390;-44
2023/10/09 00:45:40;;;;;;;9.83;5.53;;;16.20;1.00;;;;;;6310052;22;20382;-43
2023/10/09 00:48:13;;;;;;;15.40;6.10;;;16.20;1.00;;;;;;6282488;22;20396;-43
2023/10/09 00:50:46;;;;;;;14.23;5.23;;;16.20;1.00;;;;;;6283565;22;20424;-44
2023/10/09 00:53:18;;;;;;;10.43;4.40;;;16.20;1.00;;;;;;6283310;22;20386;-44
2023/10/09 00:58:12;;;;;;;13.80;5.50;;;16.20;1.00;;;;;;6308976;22;20404;-44
2023/10/09 01:03:21;;;;;;;15.03;5.50;;;16.20;1.00;;;;;;6308382;22;20386;-45
2023/10/09 01:11:22;;;;;;;13.73;5.50;;;16.20;1.00;;;;;;6309935;22;20390;-45
2023/10/09 01:16:22;;;;;;;22.73;6.73;;;16.20;1.00;;;;;;6310101;22;20451;-43
2023/10/09 01:18:52;;;;;;;16.00;6.20;;;16.20;1.00;;;;;;6310091;22;20520;-43
2023/10/09 01:21:24;;;;;;;17.90;6.00;;;16.30;1.00;;;;;;6310892;22;20382;-44
2023/10/09 01:24:08;;;;;;;11.63;5.60;;;16.30;1.00;;;;;;6309489;22;20389;-43
2023/10/09 01:26:47;;;;;;;10.23;5.00;;;16.30;1.00;;;;;;6309315;22;20466;-43
2023/10/09 01:29:15;;;;;;;16.93;5.70;;;16.20;1.00;;;;;;6309134;22;20389;-43
2023/10/09 01:32:00;;;;;;;10.07;5.20;;;16.20;1.00;;;;;;6307533;22;20354;-43
2023/10/09 01:34:42;;;;;;;14.87;6.07;;;16.20;1.00;;;;;;6309408;22;20410;-44
2023/10/09 01:37:22;;;;;;;16.93;6.17;;;16.20;1.00;;;;;;6308839;22;20777;-42
2023/10/09 01:39:51;;;;;;;11.50;5.97;;;16.10;1.00;;;;;;6309275;22;20813;-44
2023/10/09 01:42:34;;;;;;;9.60;5.07;;;16.10;1.00;;;;;;6308891;22;20656;-45
2023/10/09 01:45:10;;;;;;;13.63;5.03;;;16.10;1.00;;;;;;6308522;22;20389;-43
2023/10/09 01:47:37;;;;;;;14.13;6.43;;;16.10;1.00;;;;;;6308423;22;20390;-43
2023/10/09 01:50:05;;;;;;;10.33;4.93;;;16.10;1.00;;;;;;6308985;22;20485;-44
2023/10/09 01:52:30;;;;;;;15.70;5.83;;;16.00;1.00;;;;;;6309470;22;20354;-47
2023/10/09 01:55:03;;;;;;;14.03;4.90;;;16.00;1.00;;;;;;6309780;22;20534;-42
2023/10/09 01:57:30;;;;;;;15.20;6.47;;;16.00;1.00;;;;;;6309414;22;20543;-43
2023/10/09 01:59:59;;;;;;;11.57;5.13;;;16.00;1.00;;;;;;6309117;22;20378;-44
2023/10/09 02:02:33;;;;;;;12.80;4.80;;;16.00;1.00;;;;;;6309277;22;20378;-43
2023/10/09 02:07:51;;;;;;;11.73;4.57;;;16.10;1.00;;;;;;6309192;22;20808;-43
2023/10/09 02:13:11;;;;;;;13.27;4.80;;;16.10;1.00;;;;;;6307467;22;20394;-43
2023/10/09 02:26:18;;;;;;;7.47;4.47;;;16.00;1.00;;;;;;6308278;22;20386;-42
2023/10/09 02:28:48;;;;;;;13.10;5.60;;;16.00;1.00;;;;;;6309105;22;20357;-42
2023/10/09 02:31:14;;;;;;;11.27;4.30;;;16.00;1.00;;;;;;6309046;22;20355;-43
2023/10/09 02:33:40;;;;;;;9.70;5.07;;;16.00;1.00;;;;;;6309620;22;20393;-43
2023/10/09 02:36:06;;;;;;;15.87;5.10;;;16.00;1.00;;;;;;6308659;22;20179;-43
2023/10/09 02:38:38;;;;;;;15.17;5.80;;;16.00;1.00;;;;;;6309142;22;20162;-43
2023/10/09 02:43:47;;;;;;;15.97;6.90;;;16.00;1.00;;;;;;6309392;22;20520;-42
2023/10/09 02:46:34;;;;;;;11.30;5.30;;;16.00;1.00;;;;;;6308477;22;20144;-44
2023/10/09 02:49:03;;;;;;;10.63;5.17;;;16.00;1.00;;;;;;6307338;22;21074;-43
2023/10/09 02:53:55;;;;;;;9.23;4.63;;;16.00;1.00;;;;;;6281768;22;20786;-43
2023/10/09 02:56:24;;;;;;;13.33;4.57;;;16.00;1.00;;;;;;6307567;22;20144;-44
2023/10/09 02:59:05;;;;;;;10.00;4.47;;;16.00;1.00;;;;;;6307680;22;20343;-43
2023/10/09 03:01:31;;;;;;;10.70;4.63;;;16.00;1.00;;;;;;6307994;22;20363;-43
2023/10/09 03:03:59;;;;;;;9.90;5.80;;;16.00;1.00;;;;;;6308546;22;20370;-43
2023/10/09 03:06:30;;;;;;;11.30;5.30;;;16.00;1.00;;;;;;6309092;22;20648;-44
2023/10/09 03:08:57;;;;;;;15.60;5.53;;;15.90;1.00;;;;;;6308669;22;20460;-53
2023/10/09 03:11:23;;;;;;;8.73;4.90;;;16.00;1.00;;;;;;6281301;22;20401;-44
2023/10/09 03:13:49;;;;;;;10.60;4.60;;;16.00;1.00;;;;;;6308793;22;20361;-46
2023/10/09 03:16:23;;;;;;;10.90;5.43;;;15.90;1.00;;;;;;6307735;22;20513;-44
2023/10/09 03:18:52;;;;;;;8.43;4.53;;;15.90;1.00;;;;;;6308277;22;20527;-44
2023/10/09 03:21:18;;;;;;;8.40;4.77;;;15.90;1.00;;;;;;6308478;22;20471;-44
2023/10/09 03:23:50;;;;;;;9.10;4.03;;;15.90;1.00;;;;;;6308246;22;20390;-44
2023/10/09 03:26:20;;;;;;;10.53;6.73;;;15.90;2.50;;;;;;6308318;22;20393;-44
2023/10/09 03:28:46;;;;;;;13.03;5.47;;;15.90;2.50;;;;;;6308377;22;20654;-44
2023/10/09 03:31:12;;;;;;;9.60;5.30;;;15.90;4.40;;;;;;6307658;22;20427;-43
2023/10/09 03:33:39;;;;;;;9.23;5.20;;;15.90;7.20;;;;;;6308349;22;20386;-45
2023/10/09 03:36:11;;;;;;;17.07;5.63;;;15.90;10.40;;;;;;6307621;22;20527;-44
2023/10/09 03:38:38;;;;;;;15.00;5.50;;;15.90;13.60;;;;;;6306895;22;20584;-44
2023/10/09 03:41:12;;;;;;;11.70;4.70;;;15.90;16.20;;;;;;6307129;22;20773;-44
2023/10/09 03:43:39;;;;;;;9.73;5.00;;;15.90;21.80;;;;;;6281986;22;20464;-44
2023/10/09 03:46:14;;;;;;;9.40;4.80;;;15.90;29.30;;;;;;6307574;22;20386;-45
2023/10/09 03:48:43;;;;;;;11.13;6.00;;;15.90;32.30;;;;;;6308636;22;20678;-44
2023/10/09 03:51:10;;;;;;;10.63;5.30;;;15.90;37.10;;;;;;6307118;22;20459;-44
2023/10/09 03:53:36;;;;;;;13.83;5.37;;;15.90;38.70;;;;;;6307611;22;20770;-44
2023/10/09 03:56:11;;;;;;;9.50;5.10;;;15.80;40.90;;;;;;6307286;22;20675;-44
2023/10/09 03:58:42;;;;;;;20.07;6.30;;;15.80;44.90;;;;;;6307753;22;20357;-44
2023/10/09 04:01:16;;;;;;;17.27;5.23;;;15.80;43.40;;;;;;6306516;22;20373;-44
2023/10/09 04:03:43;;;;;;;20.47;6.40;;;15.80;42.20;;;;;;6307748;22;20517;-44
2023/10/09 04:06:10;;;;;;;11.90;5.63;;;15.80;35.30;;;;;;6307003;22;20385;-44
2023/10/09 04:08:39;;;;;;;9.73;4.23;;;15.80;30.80;;;;;;6307740;22;20417;-44
2023/10/09 04:11:15;;;;;;;9.80;4.50;;;15.80;27.80;;;;;;6308203;22;20752;-44
2023/10/09 04:13:45;;;;;;;11.93;4.57;;;15.80;29.10;;;;;;6308179;22;20366;-44
2023/10/09 04:18:56;;;;;;;13.10;5.63;;;15.80;26.90;;;;;;6308206;22;20441;-44
2023/10/09 04:21:34;;;;;;;9.70;4.60;;;15.80;27.70;;;;;;6309125;22;20378;-43
2023/10/09 04:26:55;;;;;;;8.50;5.40;;;15.80;31.30;;;;;;6308821;22;20394;-45
2023/10/09 04:29:28;;;;;;;10.50;4.57;;;15.80;32.00;;;;;;6309027;22;20382;-44
2023/10/09 04:31:56;;;;;;;12.20;5.70;;;15.80;28.10;;;;;;6308056;22;20635;-44
2023/10/09 04:34:23;;;;;;;8.03;4.07;;;15.70;23.70;;;;;;6309246;22;20475;-44
2023/10/09 04:37:19;;;;;;;10.67;5.10;;;15.70;21.70;;;;;;6309187;22;20596;-43
2023/10/09 04:39:49;;;;;;;10.57;4.57;;;15.70;15.60;;;;;;6307860;22;20506;-44
2023/10/09 04:42:20;;;;;;;8.17;4.10;;;15.70;14.70;;;;;;6307311;22;20382;-44
2023/10/09 04:47:36;;;;;;;8.93;5.23;;;15.70;19.20;;;;;;6243990;22;20513;-44
2023/10/09 04:52:54;;;;;;;11.73;4.70;;;15.70;23.20;;;;;;6307192;22;20362;-44
2023/10/09 04:55:24;;;;;;;10.00;4.27;;;15.70;26.90;;;;;;6305845;22;20471;-44
2023/10/09 04:58:09;;;;;;;10.43;4.50;;;15.60;30.50;;;;;;6307738;22;20186;-44
2023/10/09 05:00:46;;;;;;;14.20;5.13;;;15.60;34.00;;;;;;6308614;22;20444;-44
2023/10/09 05:03:25;;;;;;;7.37;4.57;;;15.60;35.00;;;;;;6306374;22;20382;-43
2023/10/09 05:05:58;;;;;;;13.67;5.63;;;15.60;42.40;;;;;;6303160;22;20386;-44
2023/10/09 05:16:18;;;;;;;11.27;5.97;;;15.50;96.00;;;;;;6303626;22;20426;-44
2023/10/09 05:18:59;;;;;;;11.23;5.50;;;15.50;99.90;;;;;;6303417;22;20426;-44
2023/10/09 05:32:03;;;;;;;11.07;4.43;;;15.40;99.90;;;;;;6311814;22;20359;-44
2023/10/09 05:37:17;;;;;;;10.30;5.60;;;15.40;99.90;;;;;;6303387;22;20366;-44
2023/10/09 05:40:08;;;;;;;10.40;4.60;;;15.50;99.90;;;;;;6300083;22;20383;-46
2023/10/09 06:03:23;;;;;;;16.53;6.63;;;16.00;1.00;;;;;;6302975;22;20384;-45
2023/10/09 06:06:18;;;;;;;8.47;4.83;;;16.20;99.90;;;;;;6303581;22;20418;-44
2023/10/09 06:14:04;;;;;;;11.90;5.07;;;16.50;70.40;;;;;;6303250;22;20394;-44
2023/10/09 06:16:43;;;;;;;13.77;5.47;;;16.50;39.10;;;;;;6303581;22;20358;-44
2023/10/09 06:29:36;;;;;;;15.17;5.00;;;16.60;6.90;;;;;;6306966;22;20390;-44
2023/10/09 06:34:56;;;;;;;11.63;4.70;;;16.70;25.10;;;;;;6307050;22;20512;-44
2023/10/09 06:39:50;;;;;;;10.33;6.20;;;16.90;16.90;;;;;;6308158;22;20447;-44
2023/10/09 06:43:07;;;;;;;12.73;6.73;;;16.90;10.40;;;;;;6307392;22;20386;-44
2023/10/09 06:45:08;;;;;;;15.00;7.27;;;17.00;6.90;;;;;;6284317;22;20394;-44
2023/10/09 06:47:53;;;;;;;12.70;6.17;;;17.10;13.20;;;;;;6307347;22;20413;-44
2023/10/09 06:52:57;;;;;;;19.37;7.90;;;17.30;11.80;;;;;;6305897;22;20359;-45
2023/10/09 06:55:34;;;;;;;14.60;6.10;;;17.40;1.00;;;;;;6304349;22;20406;-44
2023/10/09 06:58:09;;;;;;;12.80;6.50;;;17.50;1.00;;;;;;6306310;22;20382;-44
2023/10/09 07:03:29;;;;;;;13.67;6.23;;;17.60;1.00;;;;;;6303913;22;20414;-44
2023/10/09 07:06:23;;;;;;;15.07;7.40;;;17.70;1.00;;;;;;6305013;22;20473;-44
2023/10/09 07:09:15;;;;;;;27.47;7.40;;;17.80;1.00;;;;;;6305421;22;20405;-44
2023/10/09 07:14:28;;;;;;;13.00;6.60;;;17.90;1.00;;;;;;6305710;22;20492;-43
2023/10/09 07:22:23;;;;;;;10.37;5.93;;;18.10;1.00;;;;;;6312827;22;20367;-44
2023/10/09 07:27:43;;;;;;;13.30;6.17;;;18.30;1.00;;;;;;6305112;22;20389;-44
2023/10/09 07:32:54;;;;;;;10.03;5.50;;;18.50;1.00;;;;;;6305174;22;20435;-45
2023/10/09 07:38:08;;;;;;;9.40;5.70;;;18.80;1.00;;;;;;6305004;22;20385;-44
2023/10/09 07:40:56;;;;;;;15.10;6.40;;;18.90;1.00;;;;;;6306474;22;20819;-44
2023/10/09 07:43:35;;;;;;;16.10;6.87;;;19.00;1.00;;;;;;6307758;22;20366;-45
2023/10/09 07:48:54;;;;;;;10.67;5.47;;;19.20;1.00;;;;;;6263140;22;20429;-44
2023/10/09 07:51:23;;;;;;;13.50;5.73;;;19.30;1.00;;;;;;6308488;22;20492;-44
2023/10/09 07:54:42;;;;;;;20.23;5.90;;;19.40;1.00;;;;;;6307927;22;20397;-45
2023/10/09 07:56:41;;;;;;;9.73;4.93;;;19.50;1.00;;;;;;6292276;22;20654;-46
2023/10/09 07:59:13;;;;;;;17.80;6.10;;;19.50;1.00;;;;;;6308427;22;20382;-46
2023/10/09 08:01:59;;;;;;;10.10;5.30;;;19.60;1.00;;;;;;6307706;22;20354;-46
2023/10/09 08:04:37;;;;;;;13.43;5.17;;;19.70;1.00;;;;;;6283304;22;20354;-46
2023/10/09 08:07:34;;;;;;;11.40;5.00;;;19.80;1.00;;;;;;6281231;22;20388;-46
2023/10/09 08:12:57;;;;;;;12.80;4.70;;;20.00;1.00;;;;;;6307416;22;20473;-44
2023/10/09 08:15:34;;;;;;;9.40;4.67;;;20.10;1.00;;;;;;6307275;22;20460;-45
2023/10/09 08:18:09;;;;;;;10.33;4.93;;;20.20;1.00;;;;;;6305976;22;20373;-45
2023/10/09 08:24:04;;;;;;;13.30;5.10;;;20.30;1.00;;;;;;6304680;22;20385;-44
2023/10/09 08:26:16;;;;;;;12.30;4.77;;;20.40;1.00;;;;;;6293468;22;20715;-50
2023/10/09 08:28:45;;;;;;;11.10;4.23;;;20.60;1.00;;;;;;6306303;22;20665;-45
2023/10/09 08:31:19;;;;;;;10.60;4.60;;;20.60;1.00;;;;;;6279568;22;20350;-45
2023/10/09 08:33:56;;;;;;;14.97;5.97;;;20.70;1.00;;;;;;6307381;22;20382;-44
2023/10/09 08:36:28;;;;;;;11.93;4.53;;;20.80;1.00;;;;;;6306763;22;20425;-51
2023/10/09 08:38:58;;;;;;;13.73;4.83;;;20.90;1.00;;;;;;6308059;22;20417;-45
2023/10/09 08:41:29;;;;;;;14.23;4.80;;;21.00;1.00;;;;;;6307831;22;20877;-45
2023/10/09 08:43:56;;;;;;;11.27;4.37;;;21.10;1.00;;;;;;6307547;22;20438;-45
2023/10/09 08:46:27;;;;;;;11.03;4.60;;;21.20;1.00;;;;;;6307937;22;20369;-45
2023/10/09 08:49:08;;;;;;;8.53;3.90;;;21.30;1.00;;;;;;6304358;22;20405;-45
2023/10/09 08:51:35;;;;;;;7.70;4.07;;;21.40;1.00;;;;;;6282945;22;20838;-44
2023/10/09 08:54:01;;;;;;;10.93;4.90;;;21.50;1.00;;;;;;6307822;22;20628;-44
2023/10/09 08:56:26;;;;;;;9.93;4.37;;;21.50;1.00;;;;;;6307783;22;20429;-45
2023/10/09 08:58:52;;;;;;;11.30;4.80;;;21.60;1.00;;;;;;6307803;22;20561;-45
2023/10/09 09:01:21;;;;;;;10.67;4.23;;;21.70;1.00;;;;;;6306847;22;20625;-44
2023/10/09 09:03:48;;;;;;;10.90;3.90;;;21.70;1.00;;;;;;6308311;22;20443;-44
2023/10/09 09:06:14;;;;;;;11.93;5.30;;;21.80;1.00;;;;;;6281065;22;20674;-45
2023/10/09 09:08:40;;;;;;;10.33;4.30;;;21.80;1.00;;;;;;6307861;22;20479;-45
2023/10/09 09:11:22;;;;;;;13.93;4.70;;;21.90;1.00;;;;;;6307087;22;20381;-46
2023/10/09 09:14:04;;;;;;;11.80;5.23;;;22.00;1.00;;;;;;6305872;22;20351;-45
2023/10/09 09:16:31;;;;;;;13.83;5.40;;;22.00;1.00;;;;;;6307058;22;20436;-44
2023/10/09 09:19:02;;;;;;;15.50;4.97;;;22.10;1.00;;;;;;6305610;22;20426;-44
2023/10/09 09:21:29;;;;;;;8.77;5.17;;;22.20;1.00;;;;;;6306655;22;21022;-45
2023/10/09 09:24:06;;;;;;;9.83;5.57;;;22.30;1.00;;;;;;6306456;22;20776;-44
2023/10/09 09:26:37;;;;;;;10.20;4.83;;;22.30;1.00;;;;;;6307218;22;20381;-47
2023/10/09 09:29:05;;;;;;;10.77;4.77;;;22.40;1.00;;;;;;6307084;22;20382;-45
2023/10/09 09:31:37;;;;;;;10.27;5.23;;;22.50;1.00;;;;;;6279859;22;20354;-45
2023/10/09 09:34:16;;;;;;;12.07;4.90;;;22.60;1.00;;;;;;6307719;22;20749;-45
2023/10/09 09:36:57;;;;;;;12.97;4.40;;;22.70;1.00;;;;;;6307436;22;20493;-45
2023/10/09 09:39:28;;;;;;;12.67;4.50;;;22.90;1.00;;;;;;6308201;22;20386;-45
2023/10/09 09:42:03;;;;;;;10.60;4.13;;;23.00;1.00;;;;;;6280525;22;20386;-46
2023/10/09 09:44:33;;;;;;;11.50;4.90;;;23.10;1.00;;;;;;6308809;22;20389;-45
2023/10/09 09:47:06;;;;;;;10.30;4.03;;;23.20;1.00;;;;;;6307937;22;20354;-45
2023/10/09 09:49:32;;;;;;;14.87;5.20;;;23.40;1.00;;;;;;6308410;22;20455;-45
2023/10/09 09:52:09;;;;;;;13.07;5.40;;;23.50;1.00;;;;;;6307339;22;20721;-45
2023/10/09 09:54:38;;;;;;;12.33;7.10;;;23.70;1.00;;;;;;6308027;22;20433;-46
2023/10/09 09:57:12;;;;;;;12.37;5.90;;;23.90;1.00;;;;;;6281485;22;20623;-45
2023/10/09 09:59:40;;;;;;;11.50;5.20;;;24.10;1.00;;;;;;6282097;22;20393;-45
2023/10/09 10:02:10;;;;;;;16.53;6.97;;;24.30;1.00;;;;;;6307621;22;20393;-45
2023/10/09 10:04:39;;;;;;;21.40;7.10;;;24.60;1.00;;;;;;6307329;22;20354;-45
2023/10/09 10:07:09;;;;;;;20.53;6.30;;;24.80;1.00;;;;;;6306563;22;20389;-45
2023/10/09 10:09:41;;;;;;;26.20;7.60;;;25.10;1.00;;;;;;6305902;22;20488;-45
2023/10/09 10:12:10;;;;;;;18.40;7.67;;;25.40;1.00;;;;;;6307733;22;20394;-45
2023/10/09 10:14:59;;;;;;;20.27;6.37;;;25.70;1.00;;;;;;6306246;22;20487;-44
2023/10/09 10:17:27;;;;;;;21.03;7.47;;;26.20;1.00;;;;;;6305999;22;20383;-45
2023/10/09 10:22:48;;;;;;;27.47;8.30;;;27.00;1.00;;;;;;6304736;22;20371;-44
2023/10/09 10:25:49;;;;;;;26.90;9.20;;;27.30;1.00;;;;;;6306559;22;20449;-44
2023/10/09 10:28:44;;;;;;;26.33;7.23;;;27.70;1.00;;;;;;6200470;22;20476;-45
2023/10/09 10:31:09;;;;;;;22.07;7.37;;;28.00;1.00;;;;;;6303615;22;20386;-45
2023/10/09 10:33:55;;;;;;;22.57;9.37;;;28.40;1.00;;;;;;6303469;22;20431;-45
2023/10/09 10:36:26;;;;;;;28.37;7.93;;;28.60;1.00;;;;;;6304978;22;20418;-44
2023/10/09 10:39:23;;;;;;;43.53;10.47;;;28.80;1.00;;;;;;6306151;22;20465;-45
2023/10/09 10:42:04;;;;;;;23.20;7.80;;;29.00;1.00;;;;;;6306693;22;20449;-44
2023/10/09 10:44:36;;;;;;;22.43;8.53;;;29.20;1.00;;;;;;6304807;22;20392;-44
2023/10/09 10:47:15;;;;;;;26.23;7.47;;;29.30;1.00;;;;;;6304897;22;20443;-45
2023/10/09 10:49:44;;;;;;;28.57;9.47;;;29.30;1.00;;;;;;6278660;22;20370;-44
2023/10/09 10:52:35;;;;;;;21.10;7.00;;;29.40;1.00;;;;;;6277506;22;20369;-44
2023/10/09 10:58:13;;;;;;;20.47;7.10;;;29.90;1.00;;;;;;6246879;22;20390;-44
2023/10/09 11:03:35;;;;;;;22.30;6.50;;;30.00;1.00;;;;;;6306235;22;20394;-44
2023/10/09 11:06:17;;;;;;;22.43;8.40;;;29.90;1.00;;;;;;6303760;22;20385;-44
2023/10/09 11:09:08;;;;;;;25.80;8.33;;;29.70;1.00;;;;;;6303622;22;20398;-43
2023/10/09 11:11:41;;;;;;;19.97;7.40;;;29.40;1.00;;;;;;6302384;22;20386;-45
2023/10/09 11:14:17;;;;;;;16.70;7.10;;;29.20;1.00;;;;;;6276402;22;20463;-44
2023/10/09 11:16:44;;;;;;;16.40;5.97;;;29.00;1.00;;;;;;6302321;22;20361;-44
2023/10/09 11:19:31;;;;;;;13.83;5.33;;;29.00;1.00;;;;;;6302250;22;20526;-44
2023/10/09 11:21:58;;;;;;;22.87;6.83;;;29.00;1.00;;;;;;6302906;22;20475;-44
2023/10/09 11:24:33;;;;;;;17.57;7.43;;;29.10;1.00;;;;;;6305379;22;20388;-44
2023/10/09 11:27:05;;;;;;;15.83;6.50;;;29.10;1.00;;;;;;6306350;22;20360;-44
2023/10/09 11:30:32;;;;;;;19.23;5.83;;;29.20;1.00;;;;;;6278596;22;20732;-44
2023/10/09 11:32:25;;;;;;;16.67;6.10;;;29.20;1.00;;;;;;6289629;22;20381;-45
2023/10/09 11:35:09;;;;;;;15.67;6.77;;;29.20;1.00;;;;;;6304119;22;20410;-45
2023/10/09 11:37:44;;;;;;;15.40;6.20;;;29.10;1.00;;;;;;6278137;22;20386;-46
2023/10/09 11:40:48;;;;;;;12.43;6.13;;;29.00;1.00;;;;;;6305105;22;20780;-45
2023/10/09 11:43:14;;;;;;;15.00;6.00;;;28.80;1.00;;;;;;6303217;22;20350;-45
2023/10/09 11:45:53;;;;;;;15.03;6.93;;;28.60;1.00;;;;;;6304752;22;20382;-43
2023/10/09 11:48:33;;;;;;;14.37;5.87;;;28.30;1.00;;;;;;6303297;22;20771;-43
2023/10/09 11:53:43;;;;;;;13.13;6.00;;;27.80;1.00;;;;;;6306738;22;20426;-44
2023/10/09 11:56:14;;;;;;;11.60;5.80;;;27.60;1.00;;;;;;6305634;22;20455;-44
2023/10/09 11:58:40;;;;;;;15.87;5.87;;;27.30;1.00;;;;;;6304231;22;20359;-44
2023/10/09 12:01:20;;;;;;;15.47;5.50;;;27.10;1.00;;;;;;6306539;22;20359;-44
2023/10/09 12:03:53;;;;;;;10.87;6.20;;;26.80;1.00;;;;;;6305780;22;20535;-44
2023/10/09 12:06:23;;;;;;;17.03;6.73;;;26.60;1.00;;;;;;6306670;22;20400;-44
2023/10/09 12:08:49;;;;;;;14.20;5.73;;;26.40;1.00;;;;;;6306660;22;20389;-44
2023/10/09 12:11:22;;;;;;;14.03;5.77;;;26.20;1.00;;;;;;6306521;22;20386;-45
2023/10/09 12:13:48;;;;;;;7.73;5.83;;;26.10;99.90;;;;;;6305656;22;20512;-44
2023/10/09 12:16:15;;;;;;;8.70;5.23;;;25.90;99.90;;;;;;6305947;22;20516;-44
2023/10/09 12:18:42;;;;;;;9.73;5.57;;;25.80;99.90;;;;;;6305973;22;20522;-44
2023/10/09 12:21:15;;;;;;;8.00;6.00;;;25.80;99.90;;;;;;6306088;22;20748;-45
2023/10/09 12:23:44;;;;;;;9.83;5.77;;;25.80;99.90;;;;;;6305452;22;20389;-45
2023/10/09 12:26:14;;;;;;;9.63;5.50;;;25.80;99.90;;;;;;6303436;22;20390;-44
2023/10/09 12:28:49;;;;;;;9.77;5.63;;;25.90;99.90;;;;;;6304179;22;20390;-44
2023/10/09 12:31:16;;;;;;;7.70;5.23;;;26.10;99.90;;;;;;6305571;22;20362;-43
2023/10/09 12:33:42;;;;;;;7.70;5.10;;;26.40;99.90;;;;;;6306995;22;20397;-44
2023/10/09 12:36:20;;;;;;;9.20;5.40;;;26.60;99.90;;;;;;6305209;22;20570;-44
2023/10/09 12:38:50;;;;;;;13.40;7.30;;;26.90;99.90;;;;;;6307260;22;20378;-43
2023/10/09 12:41:28;;;;;;;22.47;6.73;;;27.70;1.00;;;;;;6307015;22;20382;-44
2023/10/09 12:43:59;;;;;;;22.63;6.90;;;28.50;1.00;;;;;;6306830;22;20433;-44
2023/10/09 12:46:25;;;;;;;18.00;6.80;;;29.50;1.00;;;;;;6306865;22;20364;-45
2023/10/09 12:48:57;;;;;;;12.47;7.00;;;30.40;1.00;;;;;;6307346;22;20714;-44
2023/10/09 12:51:29;;;;;;;16.87;7.43;;;31.30;1.00;;;;;;6306550;22;20424;-44
2023/10/09 12:54:01;;;;;;;22.73;7.53;;;32.00;1.00;;;;;;6304596;22;20538;-44
2023/10/09 12:56:34;;;;;;;19.87;7.50;;;32.70;1.00;;;;;;6304183;22;20443;-46
2023/10/09 12:59:01;;;;;;;17.60;7.93;;;33.20;1.00;;;;;;6303396;22;20447;-46
2023/10/09 13:01:31;;;;;;;22.80;8.30;;;33.90;1.00;;;;;;6306182;22;20322;-46
2023/10/09 13:03:59;;;;;;;20.23;7.73;;;34.60;1.00;;;;;;6306898;22;20388;-46
2023/10/09 13:06:26;;;;;;;17.67;6.83;;;35.10;1.00;;;;;;6304093;22;20535;-46
2023/10/09 13:08:51;;;;;;;16.17;7.57;;;35.60;1.00;;;;;;6305774;22;20386;-46
2023/10/09 13:11:17;;;;;;;15.20;6.90;;;35.80;1.00;;;;;;6305408;22;20679;-46
2023/10/09 13:13:46;;;;;;;14.80;7.10;;;36.00;1.00;;;;;;6307041;22;20132;-46
2023/10/09 13:16:27;;;;;;;13.23;6.93;;;35.90;1.00;;;;;;6304403;22;20160;-45
2023/10/09 13:18:55;;;;;;;17.93;7.00;;;35.60;1.00;;;;;;6272741;22;20816;-46
2023/10/09 13:21:31;;;;;;;15.33;7.30;;;35.20;1.00;;;;;;6274557;22;20368;-47
2023/10/09 13:23:58;;;;;;;15.80;7.20;;;35.20;1.00;;;;;;6274898;22;20369;-46
2023/10/09 13:26:30;;;;;;;18.00;7.80;;;35.40;1.00;;;;;;6274845;22;20571;-47
2023/10/09 13:28:57;;;;;;;14.93;8.20;;;35.40;1.00;;;;;;6274698;22;20389;-46
2023/10/09 13:31:27;;;;;;;10.30;5.90;;;35.50;1.00;;;;;;6273601;22;20453;-47
2023/10/09 13:33:55;;;;;;;16.77;7.00;;;35.60;1.00;;;;;;6274380;22;20391;-46
2023/10/09 13:36:31;;;;;;;17.40;6.90;;;35.70;1.00;;;;;;6273023;22;20525;-46
2023/10/09 13:41:47;;;;;;;14.10;6.80;;;36.40;1.00;;;;;;6272499;22;20361;-46
2023/10/09 13:44:12;;;;;;;12.73;6.80;;;36.20;1.00;;;;;;6271638;22;20383;-46
2023/10/09 13:46:41;;;;;;;10.97;6.27;;;36.10;1.00;;;;;;6272350;22;20338;-46
2023/10/09 13:49:13;;;;;;;11.53;6.70;;;36.30;1.00;;;;;;6273010;22;20149;-46
2023/10/09 13:51:45;;;;;;;11.70;6.00;;;36.60;1.00;;;;;;6273714;22;20372;-46
2023/10/09 13:54:21;;;;;;;15.27;6.50;;;36.70;1.00;;;;;;6274168;22;20361;-46
2023/10/09 13:56:52;;;;;;;14.37;7.03;;;36.60;1.00;;;;;;6272069;22;20388;-46
2023/10/09 13:59:21;;;;;;;12.10;6.80;;;36.30;1.00;;;;;;6272239;22;20358;-46
2023/10/09 14:01:48;;;;;;;10.53;6.60;;;36.00;1.00;;;;;;6272667;22;20417;-46
2023/10/09 14:04:19;;;;;;;13.17;6.77;;;35.60;99.90;;;;;;6272099;22;20451;-46
2023/10/09 14:06:45;;;;;;;8.97;6.40;;;35.70;99.90;;;;;;6269422;22;20686;-45
2023/10/09 14:09:27;;;;;;;11.60;6.73;;;35.90;99.90;;;;;;6270710;22;20387;-46
2023/10/09 14:12:06;;;;;;;11.13;6.50;;;36.30;99.90;;;;;;6276476;22;20375;-46
2023/10/09 14:14:48;;;;;;;27.73;9.60;;;36.90;1.00;;;;;;6274579;22;20385;-46
2023/10/09 14:17:28;;;;;;;18.50;8.07;;;37.70;1.00;;;;;;6272586;22;21046;-47
2023/10/09 14:19:56;;;;;;;17.20;8.23;;;38.20;1.00;;;;;;6290553;22;20496;-47
2023/10/09 14:22:29;;;;;;;12.90;8.23;;;38.30;1.00;;;;;;6303169;22;20929;-47
2023/10/09 14:24:55;;;;;;;13.40;7.77;;;37.90;1.00;;;;;;6303528;22;20379;-46
2023/10/09 14:27:26;;;;;;;14.20;7.00;;;37.90;1.00;;;;;;6303580;22;20801;-46
2023/10/09 14:29:58;;;;;;;13.00;7.10;;;37.80;99.90;;;;;;6304241;22;20249;-47
2023/10/09 14:32:34;;;;;;;12.83;8.07;;;37.60;99.90;;;;;;6275722;22;20416;-47
2023/10/09 14:35:12;;;;;;;14.13;6.63;;;37.20;99.90;;;;;;6303802;22;21004;-47
2023/10/09 14:37:39;;;;;;;15.20;7.70;;;36.80;99.90;;;;;;6304678;22;20329;-47
2023/10/09 14:40:12;;;;;;;14.80;7.03;;;36.40;99.90;;;;;;6305225;22;20900;-46
2023/10/09 14:42:44;;;;;;;14.27;6.83;;;35.90;99.90;;;;;;6305171;22;20899;-46
2023/10/09 14:45:16;;;;;;;16.27;6.90;;;35.50;99.90;;;;;;6304120;22;20357;-47
2023/10/09 14:47:47;;;;;;;15.53;7.30;;;35.00;99.90;;;;;;6304980;22;20417;-46
2023/10/09 14:50:13;;;;;;;16.20;7.73;;;34.60;99.90;;;;;;6277483;22;20380;-47
2023/10/09 14:52:39;;;;;;;12.00;6.80;;;34.10;99.90;;;;;;6304490;22;20809;-47
2023/10/09 14:55:06;;;;;;;10.70;6.87;;;33.60;99.90;;;;;;6304004;22;20393;-46
2023/10/09 14:57:33;;;;;;;13.60;7.27;;;33.30;99.90;;;;;;6304082;22;20393;-45
2023/10/09 15:00:00;;;;;;;12.00;7.10;;;33.00;99.90;;;;;;6305302;22;20368;-46
2023/10/09 15:02:25;;;;;;;15.40;6.93;;;32.80;99.90;;;;;;6306495;22;20368;-48
2023/10/09 15:04:52;;;;;;;12.07;7.00;;;32.60;99.90;;;;;;6304906;22;20354;-47
2023/10/09 15:07:20;;;;;;;10.60;6.70;;;32.30;99.90;;;;;;6305931;22;20159;-47
2023/10/09 15:09:46;;;;;;;11.90;6.90;;;32.00;99.90;;;;;;6305319;22;20420;-44
2023/10/09 15:12:12;;;;;;;14.70;7.00;;;31.80;99.90;;;;;;6278315;22;20397;-45
2023/10/09 15:14:39;;;;;;;14.80;7.30;;;31.60;99.90;;;;;;6304561;22;20421;-45
2023/10/09 15:17:06;;;;;;;16.00;7.23;;;31.50;99.90;;;;;;6304626;22;20148;-45
2023/10/09 15:19:32;;;;;;;11.77;6.03;;;31.30;99.90;;;;;;6272155;22;20397;-45
2023/10/09 15:21:58;;;;;;;11.60;6.77;;;31.10;99.90;;;;;;6274062;22;20379;-46
2023/10/09 15:24:25;;;;;;;13.87;7.50;;;31.10;99.90;;;;;;6273485;22;20149;-46
2023/10/09 15:26:56;;;;;;;10.47;7.07;;;31.00;99.90;;;;;;6274491;22;20767;-45
2023/10/09 15:29:30;;;;;;;10.30;6.60;;;30.80;99.90;;;;;;6273959;22;20366;-45
2023/10/09 15:32:04;;;;;;;14.27;7.53;;;30.50;99.90;;;;;;6272760;22;20764;-45
2023/10/09 15:34:31;;;;;;;12.53;7.60;;;30.20;99.90;;;;;;6274315;22;20330;-45
2023/10/09 15:36:56;;;;;;;13.70;6.97;;;29.90;99.90;;;;;;6273896;22;20775;-45
2023/10/09 15:39:23;;;;;;;12.10;6.53;;;29.50;99.90;;;;;;6273791;22;20362;-45
2023/10/09 15:41:50;;;;;;;15.13;7.10;;;29.20;99.90;;;;;;6273772;22;20152;-45
2023/10/09 15:44:16;;;;;;;11.10;6.57;;;28.90;99.90;;;;;;6273205;22;20379;-45
2023/10/09 15:46:45;;;;;;;13.67;6.90;;;28.60;99.90;;;;;;6272518;22;20428;-45
2023/10/09 15:49:13;;;;;;;16.03;7.17;;;28.40;99.90;;;;;;6274718;22;20337;-45
2023/10/09 15:51:38;;;;;;;13.80;6.80;;;28.10;99.90;;;;;;6273802;22;20493;-45